Terminal Aerodrome Forecast
Issued by NWS Wichita, KS

Home | Current Version | Previous Version | Text Only | Print | Product List | Glossary Off
Versions: 1 2 3 4 5 6 7 8 9 10 11 12 13 14 15 16

000
FTUS43 KICT 211100
TAFICT
TAF
KICT 211133Z 2112/2212 18012KT 3SM BR SCT007
     FM211330 18012G18KT P6SM SKC
     FM211600 19015G25KT P6SM FEW050
     FM220300 18012KT P6SM FEW250=

USA.gov is the U.S. government's official web portal to all federal, state and local government web resources and services.